Wetterdaten: Mittwoch, 24.08.2011
Datum Zeit Temp. A. Feuchte A. Luftdruck Regen Wind Richtung Richtung Sonnenschein UV Solar Windben
24.08.2011 00:00 21,2 C 91 % 1012,4 hPa 0,0 mm 0,0 km/h (0 Bft) N 0 0 min 0 UV-I 0 W/m 0,0 km/h (0 Bft)
24.08.2011 00:10 21,0 C 91 % 1012,3 hPa 0,0 mm 0,0 km/h (0 Bft) N 0 0 min 0 UV-I 0 W/m 0,0 km/h (0 Bft)
24.08.2011 00:20 20,8 C 91 % 1012,5 hPa 0,0 mm 0,0 km/h (0 Bft) N 0 0 min 0 UV-I 0 W/m 0,0 km/h (0 Bft)
24.08.2011 00:30 20,6 C 91 % 1012,5 hPa 0,0 mm 0,0 km/h (0 Bft) N 0 0 min 0 UV-I 0 W/m 0,0 km/h (0 Bft)
24.08.2011 00:40 20,5 C 91 % 1012,6 hPa 0,0 mm 0,0 km/h (0 Bft) N-NW 337 0 min 0 UV-I 0 W/m 1,6 km/h (1 Bft)
24.08.2011 00:50 20,4 C 91 % 1012,6 hPa 0,0 mm 0,0 km/h (0 Bft) N-NW 337 0 min 0 UV-I 0 W/m 1,6 km/h (1 Bft)
24.08.2011 01:00 20,4 C 91 % 1012,5 hPa 0,0 mm 0,0 km/h (0 Bft) N-NW 337 0 min 0 UV-I 0 W/m 1,6 km/h (1 Bft)
24.08.2011 01:10 20,3 C 91 % 1012,5 hPa 0,0 mm 0,0 km/h (0 Bft) N 0 0 min 0 UV-I 0 W/m 0,0 km/h (0 Bft)
24.08.2011 01:20 20,3 C 91 % 1012,6 hPa 0,0 mm 0,0 km/h (0 Bft) N 0 0 min 0 UV-I 0 W/m 0,0 km/h (0 Bft)
24.08.2011 01:30 20,1 C 91 % 1012,5 hPa 0,0 mm 0,0 km/h (0 Bft) N 0 0 min 0 UV-I 0 W/m 0,0 km/h (0 Bft)
24.08.2011 01:40 20,0 C 92 % 1012,5 hPa 0,0 mm 0,0 km/h (0 Bft) N 0 0 min 0 UV-I 0 W/m 0,0 km/h (0 Bft)
24.08.2011 01:50 19,9 C 92 % 1012,5 hPa 0,0 mm 0,0 km/h (0 Bft) N 0 0 min 0 UV-I 0 W/m 0,0 km/h (0 Bft)
24.08.2011 02:00 19,8 C 91 % 1012,4 hPa 0,0 mm 0,0 km/h (0 Bft) N 0 0 min 0 UV-I 0 W/m 0,0 km/h (0 Bft)
24.08.2011 02:10 19,7 C 92 % 1012,3 hPa 0,0 mm 0,0 km/h (0 Bft) N-NW 337 0 min 0 UV-I 0 W/m 1,6 km/h (1 Bft)
24.08.2011 02:20 19,7 C 92 % 1012,5 hPa 0,0 mm 0,0 km/h (0 Bft) N 0 0 min 0 UV-I 0 W/m 0,0 km/h (0 Bft)
24.08.2011 02:30 19,7 C 92 % 1012,6 hPa 0,0 mm 0,0 km/h (0 Bft) N 0 0 min 0 UV-I 0 W/m 0,0 km/h (0 Bft)
24.08.2011 02:40 19,6 C 92 % 1012,7 hPa 0,0 mm 0,0 km/h (0 Bft) N 0 0 min 0 UV-I 0 W/m 0,0 km/h (0 Bft)
24.08.2011 02:50 19,6 C 92 % 1012,7 hPa 0,0 mm 0,0 km/h (0 Bft) N-NW 337 0 min 0 UV-I 0 W/m 1,6 km/h (1 Bft)
24.08.2011 03:00 19,6 C 92 % 1012,7 hPa 0,0 mm 0,0 km/h (0 Bft) N 0 0 min 0 UV-I 0 W/m 0,0 km/h (0 Bft)
24.08.2011 03:10 19,6 C 92 % 1012,6 hPa 0,0 mm 0,0 km/h (0 Bft) N-NW 337 0 min 0 UV-I 0 W/m 1,6 km/h (1 Bft)
24.08.2011 03:20 19,7 C 92 % 1012,8 hPa 0,0 mm 0,0 km/h (0 Bft) N-NW 337 0 min 0 UV-I 0 W/m 8,0 km/h (2 Bft)
24.08.2011 03:30 19,8 C 92 % 1013,1 hPa 2,0 mm 3,2 km/h (1 Bft) NW 315 0 min 0 UV-I 0 W/m 11,3 km/h (2 Bft)
24.08.2011 03:40 19,8 C 92 % 1012,7 hPa 0,0 mm 0,0 km/h (0 Bft) NW 315 0 min 0 UV-I 0 W/m 4,8 km/h (1 Bft)
24.08.2011 03:50 19,8 C 92 % 1012,9 hPa 0,0 mm 0,0 km/h (0 Bft) NW 315 0 min 0 UV-I 0 W/m 4,8 km/h (1 Bft)
24.08.2011 04:00 19,8 C 92 % 1013,0 hPa 0,0 mm 0,0 km/h (0 Bft) N 0 0 min 0 UV-I 0 W/m 0,0 km/h (0 Bft)
24.08.2011 04:10 19,7 C 93 % 1013,1 hPa 0,0 mm 0,0 km/h (0 Bft) N 0 0 min 0 UV-I 0 W/m 0,0 km/h (0 Bft)
24.08.2011 04:20 19,7 C 93 % 1013,1 hPa 0,0 mm 0,0 km/h (0 Bft) NW 315 0 min 0 UV-I 0 W/m 1,6 km/h (1 Bft)
24.08.2011 04:30 19,7 C 93 % 1013,2 hPa 0,0 mm 0,0 km/h (0 Bft) NW 315 0 min 0 UV-I 0 W/m 1,6 km/h (1 Bft)
24.08.2011 04:40 19,6 C 93 % 1013,1 hPa 0,0 mm 0,0 km/h (0 Bft) N 0 0 min 0 UV-I 0 W/m 0,0 km/h (0 Bft)
24.08.2011 04:50 19,6 C 93 % 1013,1 hPa 0,0 mm 0,0 km/h (0 Bft) NW 315 0 min 0 UV-I 0 W/m 1,6 km/h (1 Bft)
24.08.2011 05:00 19,4 C 93 % 1013,1 hPa 0,0 mm 0,0 km/h (0 Bft) N 0 0 min 0 UV-I 0 W/m 0,0 km/h (0 Bft)
24.08.2011 05:10 19,3 C 93 % 1013,0 hPa 0,0 mm 0,0 km/h (0 Bft) N 0 0 min 0 UV-I 0 W/m 0,0 km/h (0 Bft)
24.08.2011 05:20 19,2 C 93 % 1013,1 hPa 0,0 mm 0,0 km/h (0 Bft) N 0 0 min 0 UV-I 0 W/m 0,0 km/h (0 Bft)
24.08.2011 05:30 19,1 C 93 % 1013,2 hPa 0,0 mm 0,0 km/h (0 Bft) NW 315 0 min 0 UV-I 0 W/m 1,6 km/h (1 Bft)
24.08.2011 05:40 19,0 C 94 % 1013,3 hPa 0,0 mm 0,0 km/h (0 Bft) NW 315 0 min 0 UV-I 0 W/m 1,6 km/h (1 Bft)
24.08.2011 05:50 18,9 C 93 % 1013,2 hPa 0,0 mm 0,0 km/h (0 Bft) NW 315 0 min 0 UV-I 0 W/m 1,6 km/h (1 Bft)
24.08.2011 06:00 18,7 C 93 % 1013,2 hPa 0,0 mm 0,0 km/h (0 Bft) NW 315 0 min 0 UV-I 0 W/m 1,6 km/h (1 Bft)
24.08.2011 06:10 18,6 C 94 % 1013,2 hPa 0,0 mm 0,0 km/h (0 Bft) NW 315 0 min 0 UV-I 0 W/m 1,6 km/h (1 Bft)
24.08.2011 06:20 18,5 C 93 % 1013,3 hPa 0,0 mm 0,0 km/h (0 Bft) NW 315 0 min 0 UV-I 0 W/m 1,6 km/h (1 Bft)
24.08.2011 06:30 18,4 C 93 % 1013,2 hPa 0,0 mm 0,0 km/h (0 Bft) NW 315 0 min 0 UV-I 0 W/m 1,6 km/h (1 Bft)
24.08.2011 06:40 18,4 C 94 % 1013,2 hPa 0,0 mm 0,0 km/h (0 Bft) N 0 0 min 0 UV-I 9 W/m 0,0 km/h (0 Bft)
24.08.2011 06:50 18,3 C 94 % 1013,2 hPa 0,0 mm 0,0 km/h (0 Bft) N 0 0 min 0 UV-I 14 W/m 0,0 km/h (0 Bft)
24.08.2011 07:00 18,3 C 94 % 1013,2 hPa 0,0 mm 0,0 km/h (0 Bft) N 0 0 min 0 UV-I 21 W/m 0,0 km/h (0 Bft)
24.08.2011 07:10 18,3 C 94 % 1013,5 hPa 0,0 mm 0,0 km/h (0 Bft) NW 315 0 min 0 UV-I 30 W/m 1,6 km/h (1 Bft)
24.08.2011 07:20 18,4 C 94 % 1013,5 hPa 0,0 mm 0,0 km/h (0 Bft) NW 315 0 min 0 UV-I 37 W/m 1,6 km/h (1 Bft)
24.08.2011 07:30 18,4 C 94 % 1013,5 hPa 0,0 mm 0,0 km/h (0 Bft) NW 304 0 min 0 UV-I 37 W/m 0,0 km/h (0 Bft)
24.08.2011 07:40 18,5 C 94 % 1013,5 hPa 0,0 mm 0,0 km/h (0 Bft) N 0 0 min 0 UV-I 54 W/m 0,0 km/h (0 Bft)
24.08.2011 07:50 18,6 C 94 % 1013,5 hPa 0,0 mm 0,0 km/h (0 Bft) N 0 0 min 0 UV-I 39 W/m 0,0 km/h (0 Bft)
24.08.2011 08:00 18,6 C 94 % 1013,4 hPa 0,0 mm 0,0 km/h (0 Bft) W-NW 290 0 min 0 UV-I 60 W/m 0,0 km/h (0 Bft)
24.08.2011 08:10 18,7 C 94 % 1013,6 hPa 0,0 mm 0,0 km/h (0 Bft) N 0 10 min 1 UV-I 146 W/m 0,0 km/h (0 Bft)
24.08.2011 08:20 19,0 C 94 % 1013,6 hPa 0,0 mm 0,0 km/h (0 Bft) W-NW 292 10 min 1 UV-I 174 W/m 1,6 km/h (1 Bft)
24.08.2011 08:30 19,2 C 94 % 1013,8 hPa 0,0 mm 0,0 km/h (0 Bft) W-NW 292 10 min 1 UV-I 214 W/m 1,6 km/h (1 Bft)
24.08.2011 08:40 19,5 C 94 % 1013,8 hPa 0,0 mm 0,0 km/h (0 Bft) N 0 10 min 1 UV-I 232 W/m 0,0 km/h (0 Bft)
24.08.2011 08:50 19,8 C 93 % 1013,7 hPa 0,0 mm 0,0 km/h (0 Bft) W-NW 292 10 min 1 UV-I 258 W/m 1,6 km/h (1 Bft)
24.08.2011 09:00 20,2 C 92 % 1013,6 hPa 0,0 mm 0,0 km/h (0 Bft) W-NW 292 10 min 1 UV-I 294 W/m 1,6 km/h (1 Bft)
24.08.2011 09:10 20,6 C 90 % 1013,7 hPa 0,0 mm 0,0 km/h (0 Bft) W-NW 292 10 min 2 UV-I 318 W/m 3,2 km/h (1 Bft)
24.08.2011 09:20 21,2 C 88 % 1013,9 hPa 0,0 mm 0,0 km/h (0 Bft) W-NW 292 10 min 2 UV-I 336 W/m 4,8 km/h (1 Bft)
24.08.2011 09:30 21,6 C 87 % 1014,3 hPa 0,0 mm 0,0 km/h (0 Bft) W-NW 292 10 min 2 UV-I 364 W/m 3,2 km/h (1 Bft)
24.08.2011 09:40 21,9 C 86 % 1014,3 hPa 0,0 mm 1,6 km/h (1 Bft) W-NW 292 10 min 2 UV-I 396 W/m 6,4 km/h (2 Bft)
24.08.2011 09:50 22,2 C 83 % 1014,1 hPa 0,0 mm 1,6 km/h (1 Bft) W 270 10 min 3 UV-I 427 W/m 4,8 km/h (1 Bft)
24.08.2011 10:00 22,5 C 80 % 1013,9 hPa 0,0 mm 1,6 km/h (1 Bft) W 270 10 min 3 UV-I 452 W/m 6,4 km/h (2 Bft)
24.08.2011 10:10 22,8 C 79 % 1014,2 hPa 0,0 mm 1,6 km/h (1 Bft) W 270 10 min 3 UV-I 466 W/m 8,0 km/h (2 Bft)
24.08.2011 10:20 23,1 C 78 % 1014,1 hPa 0,0 mm 1,6 km/h (1 Bft) W-NW 292 10 min 3 UV-I 485 W/m 6,4 km/h (2 Bft)
24.08.2011 10:30 23,3 C 76 % 1014,1 hPa 0,0 mm 1,6 km/h (1 Bft) W-NW 292 10 min 3 UV-I 506 W/m 8,0 km/h (2 Bft)
24.08.2011 10:40 23,6 C 79 % 1013,9 hPa 0,0 mm 0,0 km/h (0 Bft) W-NW 292 10 min 4 UV-I 540 W/m 3,2 km/h (1 Bft)
24.08.2011 10:50 24,1 C 75 % 1013,6 hPa 0,0 mm 0,0 km/h (0 Bft) W-NW 292 10 min 4 UV-I 571 W/m 4,8 km/h (1 Bft)
24.08.2011 11:00 24,3 C 74 % 1013,1 hPa 0,0 mm 1,6 km/h (1 Bft) W-NW 292 10 min 4 UV-I 605 W/m 8,0 km/h (2 Bft)
24.08.2011 11:10 24,3 C 76 % 1013,0 hPa 0,0 mm 1,6 km/h (1 Bft) W-NW 292 10 min 5 UV-I 650 W/m 8,0 km/h (2 Bft)
24.08.2011 11:20 24,6 C 72 % 1013,1 hPa 0,0 mm 1,6 km/h (1 Bft) NW 315 10 min 5 UV-I 635 W/m 4,8 km/h (1 Bft)
24.08.2011 11:30 24,4 C 73 % 1013,1 hPa 0,0 mm 0,0 km/h (0 Bft) W-NW 292 10 min 5 UV-I 698 W/m 1,6 km/h (1 Bft)
24.08.2011 11:40 24,8 C 72 % 1013,0 hPa 0,0 mm 1,6 km/h (1 Bft) NW 315 10 min 5 UV-I 657 W/m 6,4 km/h (2 Bft)
24.08.2011 11:50 25,1 C 68 % 1013,0 hPa 0,0 mm 1,6 km/h (1 Bft) NW 315 10 min 5 UV-I 694 W/m 6,4 km/h (2 Bft)
24.08.2011 12:00 25,4 C 69 % 1012,9 hPa 0,0 mm 0,0 km/h (0 Bft) NW 315 10 min 5 UV-I 715 W/m 6,4 km/h (2 Bft)
24.08.2011 12:10 25,7 C 67 % 1012,9 hPa 0,0 mm 1,6 km/h (1 Bft) NW 315 10 min 5 UV-I 737 W/m 4,8 km/h (1 Bft)
24.08.2011 12:20 25,7 C 65 % 1013,0 hPa 0,0 mm 1,6 km/h (1 Bft) W-NW 292 10 min 5 UV-I 819 W/m 9,7 km/h (2 Bft)
24.08.2011 12:30 25,5 C 67 % 1013,0 hPa 0,0 mm 1,6 km/h (1 Bft) W-NW 292 10 min 5 UV-I 707 W/m 8,0 km/h (2 Bft)
24.08.2011 12:40 25,6 C 64 % 1012,9 hPa 0,0 mm 0,0 km/h (0 Bft) W-NW 292 10 min 5 UV-I 657 W/m 4,8 km/h (1 Bft)
24.08.2011 12:50 25,8 C 62 % 1012,7 hPa 0,0 mm 1,6 km/h (1 Bft) W-NW 292 10 min 6 UV-I 756 W/m 8,0 km/h (2 Bft)
24.08.2011 13:00 26,6 C 60 % 1012,8 hPa 0,0 mm 1,6 km/h (1 Bft) W-NW 292 10 min 6 UV-I 846 W/m 11,3 km/h (2 Bft)
24.08.2011 13:10 26,8 C 62 % 1012,6 hPa 0,0 mm 1,6 km/h (1 Bft) W-NW 292 10 min 6 UV-I 696 W/m 9,7 km/h (2 Bft)
24.08.2011 13:20 26,2 C 64 % 1012,7 hPa 0,0 mm 1,6 km/h (1 Bft) W-NW 292 10 min 5 UV-I 694 W/m 8,0 km/h (2 Bft)
24.08.2011 13:30 26,4 C 66 % 1012,7 hPa 0,0 mm 0,0 km/h (0 Bft) W-NW 292 10 min 5 UV-I 687 W/m 6,4 km/h (2 Bft)
24.08.2011 13:40 26,8 C 61 % 1012,6 hPa 0,0 mm 1,6 km/h (1 Bft) W-NW 292 10 min 6 UV-I 707 W/m 8,0 km/h (2 Bft)
24.08.2011 13:50 27,1 C 62 % 1012,6 hPa 0,0 mm 1,6 km/h (1 Bft) W-NW 292 10 min 5 UV-I 666 W/m 8,0 km/h (2 Bft)
24.08.2011 14:00 26,9 C 60 % 1012,7 hPa 0,0 mm 1,6 km/h (1 Bft) W-NW 292 10 min 5 UV-I 596 W/m 8,0 km/h (2 Bft)
24.08.2011 14:10 26,6 C 62 % 1012,7 hPa 0,0 mm 1,6 km/h (1 Bft) W-NW 292 0 min 4 UV-I 309 W/m 6,4 km/h (2 Bft)
24.08.2011 14:20 26,5 C 61 % 1012,6 hPa 0,0 mm 3,2 km/h (1 Bft) W-NW 292 10 min 6 UV-I 747 W/m 16,1 km/h (3 Bft)
24.08.2011 14:30 27,2 C 59 % 1012,6 hPa 0,0 mm 3,2 km/h (1 Bft) W 270 10 min 6 UV-I 793 W/m 11,3 km/h (2 Bft)
24.08.2011 14:40 27,6 C 59 % 1012,6 hPa 0,0 mm 1,6 km/h (1 Bft) W 270 10 min 6 UV-I 865 W/m 8,0 km/h (2 Bft)
24.08.2011 14:50 27,8 C 58 % 1012,6 hPa 0,0 mm 3,2 km/h (1 Bft) W 270 10 min 6 UV-I 898 W/m 16,1 km/h (3 Bft)
24.08.2011 15:00 27,8 C 57 % 1012,7 hPa 0,0 mm 4,8 km/h (1 Bft) W-SW 247 10 min 6 UV-I 821 W/m 14,5 km/h (3 Bft)
24.08.2011 15:10 27,4 C 59 % 1012,6 hPa 0,0 mm 3,2 km/h (1 Bft) W 270 10 min 5 UV-I 819 W/m 11,3 km/h (2 Bft)
24.08.2011 15:20 27,7 C 56 % 1012,6 hPa 0,0 mm 4,8 km/h (1 Bft) W-SW 247 10 min 5 UV-I 791 W/m 12,9 km/h (3 Bft)
24.08.2011 15:30 27,1 C 59 % 1012,5 hPa 0,0 mm 3,2 km/h (1 Bft) W 270 0 min 3 UV-I 216 W/m 14,5 km/h (3 Bft)
24.08.2011 15:40 27,1 C 57 % 1012,6 hPa 0,0 mm 3,2 km/h (1 Bft) W 270 10 min 4 UV-I 700 W/m 11,3 km/h (2 Bft)
24.08.2011 15:50 27,8 C 58 % 1012,6 hPa 0,0 mm 3,2 km/h (1 Bft) W 270 10 min 4 UV-I 686 W/m 14,5 km/h (3 Bft)
24.08.2011 16:00 28,3 C 56 % 1012,7 hPa 0,0 mm 2,4 km/h (1 Bft) W 279 10 min 4 UV-I 663 W/m 8,0 km/h (2 Bft)
24.08.2011 16:10 28,3 C 53 % 1012,5 hPa 0,0 mm 8,0 km/h (2 Bft) W 270 10 min 4 UV-I 705 W/m 19,3 km/h (3 Bft)
24.08.2011 16:20 28,2 C 52 % 1012,4 hPa 0,0 mm 4,8 km/h (1 Bft) W 270 10 min 4 UV-I 661 W/m 16,1 km/h (3 Bft)
24.08.2011 16:30 28,2 C 54 % 1012,4 hPa 0,0 mm 4,8 km/h (1 Bft) W-SW 247 10 min 3 UV-I 589 W/m 12,9 km/h (3 Bft)
24.08.2011 16:40 28,4 C 55 % 1012,6 hPa 0,0 mm 3,2 km/h (1 Bft) W-SW 247 10 min 3 UV-I 566 W/m 11,3 km/h (2 Bft)
24.08.2011 16:50 28,1 C 54 % 1012,4 hPa 0,0 mm 1,6 km/h (1 Bft) W-SW 247 10 min 3 UV-I 561 W/m 12,9 km/h (3 Bft)
24.08.2011 17:00 27,9 C 53 % 1012,5 hPa 0,0 mm 4,8 km/h (1 Bft) W-NW 292 10 min 3 UV-I 489 W/m 16,1 km/h (3 Bft)
24.08.2011 17:10 27,5 C 54 % 1012,5 hPa 0,0 mm 3,2 km/h (1 Bft) W-NW 292 10 min 2 UV-I 330 W/m 11,3 km/h (2 Bft)
24.08.2011 17:20 27,3 C 56 % 1012,2 hPa 0,0 mm 1,6 km/h (1 Bft) W-NW 292 10 min 2 UV-I 376 W/m 11,3 km/h (2 Bft)
24.08.2011 17:30 27,3 C 56 % 1012,2 hPa 0,0 mm 3,2 km/h (1 Bft) W-NW 292 10 min 2 UV-I 397 W/m 8,0 km/h (2 Bft)
24.08.2011 17:40 27,1 C 57 % 1012,2 hPa 0,0 mm 1,6 km/h (1 Bft) W-NW 292 10 min 2 UV-I 258 W/m 9,7 km/h (2 Bft)
24.08.2011 17:50 26,9 C 57 % 1012,0 hPa 0,0 mm 1,6 km/h (1 Bft) W-NW 292 0 min 1 UV-I 202 W/m 8,0 km/h (2 Bft)
24.08.2011 18:00 26,6 C 58 % 1012,0 hPa 0,0 mm 1,6 km/h (1 Bft) W-NW 292 0 min 1 UV-I 195 W/m 8,0 km/h (2 Bft)
24.08.2011 18:10 26,3 C 60 % 1012,2 hPa 0,0 mm 1,6 km/h (1 Bft) W-NW 292 0 min 1 UV-I 114 W/m 6,4 km/h (2 Bft)
24.08.2011 18:20 25,9 C 60 % 1012,3 hPa 0,0 mm 3,2 km/h (1 Bft) W-NW 292 0 min 0 UV-I 40 W/m 11,3 km/h (2 Bft)
24.08.2011 18:30 25,4 C 65 % 1012,4 hPa 0,0 mm 3,2 km/h (1 Bft) W-NW 292 0 min 0 UV-I 16 W/m 16,1 km/h (3 Bft)
24.08.2011 18:40 24,4 C 72 % 1013,0 hPa 0,3 mm 3,2 km/h (1 Bft) W-NW 292 0 min 0 UV-I 26 W/m 14,5 km/h (3 Bft)
24.08.2011 18:50 23,1 C 79 % 1013,1 hPa 0,5 mm 1,6 km/h (1 Bft) W-NW 292 0 min 0 UV-I 47 W/m 8,0 km/h (2 Bft)
24.08.2011 19:00 22,3 C 82 % 1013,2 hPa 0,3 mm 0,0 km/h (0 Bft) W-NW 292 0 min 0 UV-I 42 W/m 8,0 km/h (2 Bft)
24.08.2011 19:10 21,9 C 84 % 1013,2 hPa 0,0 mm 0,0 km/h (0 Bft) W-NW 292 0 min 0 UV-I 30 W/m 1,6 km/h (1 Bft)
24.08.2011 19:20 21,6 C 84 % 1013,4 hPa 0,0 mm 3,2 km/h (1 Bft) W-NW 292 0 min 0 UV-I 30 W/m 11,3 km/h (2 Bft)
24.08.2011 19:30 20,7 C 84 % 1013,1 hPa 0,0 mm 1,6 km/h (1 Bft) W-NW 292 0 min 0 UV-I 26 W/m 6,4 km/h (2 Bft)
24.08.2011 19:40 20,4 C 85 % 1013,1 hPa 2,8 mm 1,6 km/h (1 Bft) W-NW 292 0 min 0 UV-I 14 W/m 6,4 km/h (2 Bft)
24.08.2011 19:50 20,2 C 87 % 1013,0 hPa 0,8 mm 0,0 km/h (0 Bft) W-NW 292 0 min 0 UV-I 21 W/m 1,6 km/h (1 Bft)
24.08.2011 20:00 19,9 C 88 % 1013,3 hPa 0,0 mm 0,0 km/h (0 Bft) W-NW 292 0 min 0 UV-I 21 W/m 1,6 km/h (1 Bft)
24.08.2011 20:10 19,7 C 89 % 1013,3 hPa 0,0 mm 0,0 km/h (0 Bft) W-NW 292 0 min 0 UV-I 14 W/m 3,2 km/h (1 Bft)
24.08.2011 20:20 19,8 C 90 % 1013,4 hPa 0,0 mm 0,0 km/h (0 Bft) N 0 0 min 0 UV-I 11 W/m 0,0 km/h (0 Bft)
24.08.2011 20:30 19,9 C 90 % 1013,5 hPa 0,0 mm 0,0 km/h (0 Bft) W-NW 292 0 min 0 UV-I 9 W/m 1,6 km/h (1 Bft)
24.08.2011 20:40 19,9 C 91 % 1013,5 hPa 0,0 mm 0,0 km/h (0 Bft) W-NW 292 0 min 0 UV-I 0 W/m 1,6 km/h (1 Bft)
24.08.2011 20:50 19,8 C 91 % 1013,7 hPa 0,0 mm 0,0 km/h (0 Bft) W-NW 292 0 min 0 UV-I 0 W/m 1,6 km/h (1 Bft)
24.08.2011 21:00 19,8 C 91 % 1013,9 hPa 0,0 mm 0,0 km/h (0 Bft) W-NW 292 0 min 0 UV-I 0 W/m 3,2 km/h (1 Bft)
24.08.2011 21:10 19,7 C 91 % 1014,1 hPa 0,0 mm 0,0 km/h (0 Bft) W-NW 292 0 min 0 UV-I 0 W/m 1,6 km/h (1 Bft)
24.08.2011 21:20 19,6 C 91 % 1014,2 hPa 0,0 mm 0,0 km/h (0 Bft) W-NW 292 0 min 0 UV-I 0 W/m 1,6 km/h (1 Bft)
24.08.2011 21:30 19,6 C 91 % 1014,2 hPa 0,0 mm 0,0 km/h (0 Bft) W-NW 292 0 min 0 UV-I 0 W/m 3,2 km/h (1 Bft)
24.08.2011 21:40 19,5 C 91 % 1014,2 hPa 0,0 mm 0,0 km/h (0 Bft) W-NW 292 0 min 0 UV-I 0 W/m 4,8 km/h (1 Bft)
24.08.2011 21:50 19,4 C 91 % 1014,1 hPa 0,0 mm 0,0 km/h (0 Bft) W-NW 292 0 min 0 UV-I 0 W/m 4,8 km/h (1 Bft)
24.08.2011 22:00 19,3 C 91 % 1014,0 hPa 0,0 mm 0,0 km/h (0 Bft) W-NW 292 0 min 0 UV-I 0 W/m 3,2 km/h (1 Bft)
24.08.2011 22:10 19,2 C 91 % 1014,0 hPa 0,0 mm 0,0 km/h (0 Bft) W-NW 292 0 min 0 UV-I 0 W/m 1,6 km/h (1 Bft)
24.08.2011 22:20 19,0 C 91 % 1014,0 hPa 0,0 mm 0,0 km/h (0 Bft) W-NW 285 0 min 0 UV-I 0 W/m 0,0 km/h (0 Bft)
24.08.2011 22:30 18,9 C 91 % 1013,9 hPa 0,0 mm 0,0 km/h (0 Bft) W-NW 292 0 min 0 UV-I 0 W/m 1,6 km/h (1 Bft)
24.08.2011 22:40 18,9 C 91 % 1014,0 hPa 0,0 mm 0,0 km/h (0 Bft) N 0 0 min 0 UV-I 0 W/m 0,0 km/h (0 Bft)
24.08.2011 22:50 18,8 C 91 % 1014,1 hPa 0,0 mm 0,0 km/h (0 Bft) N 0 0 min 0 UV-I 0 W/m 0,0 km/h (0 Bft)
24.08.2011 23:00 18,6 C 91 % 1014,1 hPa 0,0 mm 0,0 km/h (0 Bft) N 0 0 min 0 UV-I 0 W/m 0,0 km/h (0 Bft)
24.08.2011 23:10 18,5 C 91 % 1014,2 hPa 0,0 mm 0,0 km/h (0 Bft) N 0 0 min 0 UV-I 0 W/m 0,0 km/h (0 Bft)
24.08.2011 23:20 18,4 C 91 % 1014,3 hPa 0,0 mm 0,0 km/h (0 Bft) W-NW 292 0 min 0 UV-I 0 W/m 1,6 km/h (1 Bft)
24.08.2011 23:30 18,3 C 91 % 1014,5 hPa 0,0 mm 0,0 km/h (0 Bft) W-NW 292 0 min 0 UV-I 0 W/m 3,2 km/h (1 Bft)
24.08.2011 23:40 18,3 C 90 % 1014,6 hPa 0,0 mm 0,0 km/h (0 Bft) W-NW 292 0 min 0 UV-I 0 W/m 4,8 km/h (1 Bft)
24.08.2011 23:50 18,3 C 90 % 1014,7 hPa 0,0 mm 0,0 km/h (0 Bft) N 0 0 min 0 UV-I 0 W/m 0,0 km/h (0 Bft)
_ Min-Zeit 06:40 16:20 17:50 - 00:00 - - - - - 00:00
Minimum _ 18,3 C 52 % 1012,0 hPa - 0,0 km/h (0 Bft) - - - - - 0,0 km/h (0 Bft)
_ Max-Zeit 16:40 05:40 23:50 19:40 16:10 - - 08:10 13:00 14:50 16:10
Maximum _ 28,5 C 94 % 1014,7 hPa 2,8 mm 8,0 km/h
W (2 Bft)
- - 10 min 6 UV-I 898 W/m 19,3 km/h
W (3 Bft)
Durchschnitt _ 22,1 C 81 % 1013,1 hPa #6,6 mm 0,9 km/h (0 Bft) W-NW - #9:20 h 4 UV-I 402 W/m 4,8 km/h (1 Bft)